.
WxDataArchive / Data Records for 2008-09-08
2008-09-07 September 2008 2008-09-09

Data Records for Monday, 08 September 2008

Time	Temp	Chill	HIndex	Humid	Dewpt	 Wind 	HiWind	WindDir	Rain 	Barom 
-----	----	-----	------	-----	-----	------	------	-------	-----	----- 
00:00	55.1	55.1	55.1	88	51.6	0	0	---	0.00	30.082 
00:05	55.1	55.1	55.1	88	51.6	0	0	---	0.00	30.082 
00:10	55.0	55.0	55.0	89	51.8	0	0	---	0.00	30.082 
00:15	54.8	54.8	54.8	89	51.6	0	0	---	0.00	30.081 
00:20	54.7	54.7	54.7	89	51.5	0	0	---	0.00	30.081 
00:25	54.7	54.7	54.7	90	51.8	0	0	---	0.00	30.081 
00:30	54.5	54.5	54.5	90	51.6	0	0	---	0.00	30.076 
00:35	54.4	54.4	54.4	90	51.5	0	0	---	0.00	30.076 
00:40	54.4	54.4	54.4	91	51.8	0	0	---	0.00	30.076 
00:45	54.4	54.4	54.4	91	51.8	0	0	---	0.00	30.079 
00:50	54.2	54.2	54.2	91	51.6	0	0	---	0.00	30.079 
00:55	54.2	54.2	54.2	91	51.6	0	0	---	0.00	30.079 
01:00	54.1	54.1	54.1	92	51.8	0	0	---	0.00	30.078 
01:05	54.1	54.1	54.1	92	51.8	0	0	---	0.00	30.078 
01:10	53.9	53.9	53.9	92	51.6	0	0	---	0.00	30.078 
01:15	53.9	53.9	53.9	92	51.6	0	0	---	0.00	30.080 
01:20	53.8	53.8	53.8	92	51.5	0	0	---	0.00	30.080 
01:25	53.8	53.8	53.8	92	51.5	0	0	---	0.00	30.080 
01:30	53.8	53.8	53.8	92	51.5	0	0	---	0.00	30.078 
01:35	53.6	53.6	53.6	92	51.3	0	0	---	0.00	30.078 
01:40	53.8	53.8	53.8	93	51.8	0	0	---	0.00	30.078 
01:45	53.8	53.8	53.8	93	51.8	0	0	---	0.00	30.084 
01:50	53.8	53.8	53.8	93	51.8	0	0	---	0.00	30.084 
01:55	53.8	53.8	53.8	93	51.8	0	0	---	0.00	30.084 
02:00	53.9	53.9	53.9	93	51.9	0	0	---	0.00	30.091 
02:05	53.9	53.9	53.9	93	51.9	0	0	---	0.00	30.091 
02:10	54.1	54.1	54.1	93	52.1	0	0	---	0.00	30.091 
02:15	54.2	54.2	54.2	93	52.2	0	0	---	0.00	30.090 
02:20	54.4	54.4	54.4	93	52.4	0	0	---	0.00	30.090 
02:25	54.5	54.5	54.5	93	52.5	0	0	---	0.00	30.090 
02:30	54.7	54.7	54.7	93	52.7	0	0	---	0.00	30.090 
02:35	54.7	54.7	54.7	93	52.7	0	1	248	0.00	30.090 
02:40	54.7	54.7	54.7	93	52.7	0	0	---	0.00	30.090 
02:45	54.8	54.8	54.8	93	52.8	0	0	---	0.00	30.090 
02:50	54.8	54.8	54.8	93	52.8	0	1	248	0.00	30.090 
02:55	55.0	55.0	55.0	92	52.7	0	0	---	0.00	30.090 
03:00	55.1	55.1	55.1	92	52.8	0	0	---	0.00	30.091 
03:05	55.3	55.3	55.3	92	53.0	0	0	---	0.00	30.091 
03:10	55.3	55.3	55.3	92	53.0	0	0	---	0.00	30.091 
03:15	55.4	55.4	55.4	92	53.1	0	0	---	0.00	30.091 
03:20	55.4	55.4	55.4	91	52.8	0	0	---	0.00	30.091 
03:25	55.4	55.4	55.4	91	52.8	0	0	---	0.00	30.091 
03:30	55.4	55.4	55.4	91	52.8	0	0	---	0.00	30.090 
03:35	55.3	55.3	55.3	91	52.7	0	0	---	0.00	30.090 
03:40	55.3	55.3	55.3	90	52.4	0	0	---	0.00	30.090 
03:45	55.1	55.1	55.1	90	52.2	0	0	---	0.00	30.089 
03:50	55.1	55.1	55.1	90	52.2	0	0	---	0.00	30.089 
03:55	55.0	55.0	55.0	90	52.1	0	0	---	0.00	30.089 
04:00	54.8	54.8	54.8	90	51.9	0	0	---	0.00	30.091 
04:05	54.8	54.8	54.8	91	52.2	0	0	---	0.00	30.091 
04:10	54.8	54.8	54.8	91	52.2	0	0	---	0.00	30.091 
04:15	55.0	55.0	55.0	91	52.4	0	0	---	0.00	30.081 
04:20	55.0	55.0	55.0	91	52.4	0	0	---	0.00	30.081 
04:25	55.0	55.0	55.0	91	52.4	0	0	---	0.00	30.081 
04:30	55.1	55.1	55.1	91	52.5	0	0	---	0.00	30.086 
04:35	55.1	55.1	55.1	91	52.5	0	0	---	0.00	30.086 
04:40	55.1	55.1	55.1	91	52.5	0	0	---	0.00	30.086 
04:45	55.1	55.1	55.1	91	52.5	0	1	248	0.00	30.087 
04:50	55.1	55.1	55.1	91	52.5	0	0	---	0.00	30.087 
04:55	55.0	55.0	55.0	91	52.4	0	0	---	0.00	30.087 
05:00	55.0	55.0	55.0	91	52.4	0	0	---	0.00	30.081 
05:05	54.8	54.8	54.8	91	52.2	0	0	---	0.00	30.081 
05:10	54.7	54.7	54.7	91	52.1	0	0	---	0.00	30.081 
05:15	54.7	54.7	54.7	91	52.1	0	0	---	0.00	30.087 
05:20	54.5	54.5	54.5	91	51.9	0	0	---	0.00	30.087 
05:25	54.5	54.5	54.5	92	52.2	0	0	---	0.00	30.087 
05:30	54.5	54.5	54.5	92	52.2	0	0	---	0.00	30.091 
05:35	54.5	54.5	54.5	92	52.2	0	0	---	0.00	30.091 
05:40	54.4	54.4	54.4	92	52.1	0	0	---	0.00	30.091 
05:45	54.4	54.4	54.4	92	52.1	0	0	---	0.00	30.090 
05:50	54.4	54.4	54.4	92	52.1	0	0	---	0.00	30.090 
05:55	54.4	54.4	54.4	92	52.1	0	0	---	0.00	30.090 
06:00	54.2	54.2	54.2	92	51.9	0	0	---	0.00	30.092 
06:05	54.1	54.1	54.1	92	51.8	0	0	---	0.00	30.092 
06:10	53.9	53.9	53.9	92	51.6	0	0	---	0.00	30.092 
06:15	53.9	53.9	53.9	92	51.6	0	0	---	0.00	30.098 
06:20	53.8	53.8	53.8	93	51.8	0	0	---	0.00	30.098 
06:25	53.8	53.8	53.8	93	51.8	0	0	---	0.00	30.098 
06:30	53.8	53.8	53.8	93	51.8	0	0	---	0.00	30.104 
06:35	53.8	53.8	53.8	93	51.8	0	0	---	0.00	30.104 
06:40	53.8	53.8	53.8	93	51.8	0	0	---	0.00	30.104 
06:45	53.9	53.9	53.9	93	51.9	0	0	---	0.00	30.109 
06:50	54.4	54.4	54.4	94	52.7	0	0	---	0.00	30.109 
06:55	54.8	54.8	54.8	94	53.1	0	0	---	0.00	30.109 
07:00	55.3	55.3	55.3	95	53.9	0	0	---	0.00	30.114 
07:05	55.7	55.7	55.7	94	54.0	0	0	---	0.00	30.114 
07:10	56.0	56.0	56.0	94	54.3	0	0	---	0.00	30.114 
07:15	56.3	56.3	56.3	94	54.6	0	0	---	0.00	30.122 
07:20	56.6	56.6	56.6	94	54.9	0	0	---	0.00	30.122 
07:25	56.9	56.9	56.9	94	55.2	0	0	---	0.00	30.122 
07:30	57.2	57.2	57.2	94	55.5	0	0	---	0.00	30.120 
07:35	57.5	57.5	57.5	93	55.5	0	0	---	0.00	30.120 
07:40	57.8	57.8	57.8	93	55.8	0	0	---	0.00	30.120 
07:45	58.1	58.1	58.1	92	55.8	0	0	---	0.00	30.118 
07:50	58.4	58.4	58.4	92	56.1	0	0	---	0.00	30.118 
07:55	58.7	58.7	58.7	90	55.8	0	1	248	0.00	30.118 
08:00	58.9	58.9	58.9	89	55.7	0	1	248	0.00	30.110 
08:05	59.2	59.2	59.2	88	55.6	0	0	---	0.00	30.110 
08:10	59.3	59.3	59.3	88	55.7	0	0	---	0.00	30.110 
08:15	59.6	59.6	59.6	87	55.7	0	1	248	0.00	30.111 
08:20	59.9	59.9	59.9	87	56.0	0	1	248	0.00	30.111 
08:25	60.2	60.2	60.2	86	56.0	0	1	248	0.00	30.111 
08:30	60.4	60.4	60.4	86	56.2	0	0	---	0.00	30.109 
08:35	60.7	60.7	60.7	85	56.2	0	1	248	0.00	30.109 
08:40	60.9	60.9	60.9	84	56.0	0	0	---	0.00	30.109 
08:45	61.0	61.0	61.0	85	56.5	0	1	248	0.00	30.099 
08:50	61.2	61.2	61.2	84	56.3	0	0	---	0.00	30.099 
08:55	61.3	61.3	61.3	84	56.4	0	1	248	0.00	30.099 
09:00	61.6	61.6	61.6	83	56.4	0	1	248	0.00	30.096 
09:05	61.8	61.8	61.8	82	56.2	0	1	248	0.00	30.096 
09:10	62.1	62.1	62.1	82	56.5	0	1	248	0.00	30.096 
09:15	62.4	62.4	62.4	81	56.5	0	2	248	0.00	30.098 
09:20	62.9	62.9	62.9	80	56.6	0	1	248	0.00	30.098 
09:25	63.4	63.4	63.4	79	56.8	0	1	248	0.00	30.098 
09:30	63.9	63.9	63.9	78	56.9	0	1	248	0.00	30.104 
09:35	64.3	64.3	64.3	77	56.9	1	2	248	0.00	30.104 
09:40	64.8	64.8	64.8	76	57.0	0	2	225	0.00	30.104 
09:45	65.0	65.0	65.0	73	56.1	0	2	248	0.00	30.107 
09:50	65.6	65.6	65.6	73	56.7	0	1	248	0.00	30.107 
09:55	66.4	66.4	66.4	71	56.7	0	3	248	0.00	30.107 
10:00	67.3	67.3	67.3	69	56.8	1	3	248	0.00	30.095 
10:05	67.4	67.4	67.4	68	56.5	1	3	112	0.00	30.095 
10:10	67.6	67.6	67.6	67	56.2	1	3	112	0.00	30.095 
10:15	68.1	68.1	68.1	65	55.9	1	2	248	0.00	30.090 
10:20	68.8	68.8	68.8	63	55.7	0	2	248	0.00	30.090 
10:25	69.6	69.6	69.6	62	56.0	0	1	248	0.00	30.090 
10:30	69.9	69.9	69.9	60	55.4	1	2	248	0.00	30.080 
10:35	70.4	70.4	70.4	60	55.8	0	2	225	0.00	30.080 
10:40	71.3	71.3	71.3	58	55.7	1	4	90	0.00	30.080 
10:45	72.3	72.3	72.3	55	55.2	1	3	90	0.00	30.084 
10:50	73.0	73.0	73.0	52	54.3	0	1	90	0.00	30.084 
10:55	73.7	73.7	73.7	52	55.0	1	3	112	0.00	30.084 
11:00	74.2	74.2	74.2	50	54.3	1	4	135	0.00	30.076 
11:05	74.2	74.2	74.2	50	54.3	1	4	135	0.00	30.076 
11:10	73.7	73.7	73.7	49	53.3	2	6	90	0.00	30.076 
11:15	73.2	73.2	73.2	51	54.0	0	6	68	0.00	30.071 
11:20	73.0	73.0	73.0	51	53.8	0	2	68	0.00	30.071 
11:25	73.7	73.7	73.7	51	54.4	1	2	202	0.00	30.071 
11:30	74.7	74.7	74.7	49	54.3	1	3	225	0.00	30.062 
11:35	75.4	75.4	77.8	48	54.3	1	4	248	0.00	30.062 
11:40	76.0	76.0	78.0	47	54.3	1	3	90	0.00	30.062 
11:45	76.3	76.3	78.2	47	54.6	1	3	112	0.00	30.055 
11:50	76.5	76.5	78.3	47	54.7	1	4	90	0.00	30.055 
11:55	76.1	76.1	78.0	45	53.2	2	5	90	0.00	30.055 
12:00	75.8	75.8	77.9	46	53.5	2	5	90	0.00	30.041 
12:05	75.4	75.4	77.8	46	53.2	2	6	270	0.00	30.041 
12:10	75.1	75.1	77.7	48	54.1	1	3	202	0.00	30.041 
12:15	75.3	75.3	77.7	49	54.8	1	3	270	0.00	30.054 
12:20	75.4	75.4	77.8	47	53.7	1	4	270	0.00	30.054 
12:25	75.3	75.3	77.7	47	53.7	1	3	315	0.00	30.054 
12:30	75.4	75.4	77.8	47	53.7	2	8	248	0.00	30.056 
12:35	75.6	75.6	77.9	47	53.9	1	5	225	0.00	30.056 
12:40	76.0	76.0	78.0	47	54.3	1	4	68	0.00	30.056 
12:45	76.3	76.3	78.1	46	54.0	1	4	112	0.00	30.051 
12:50	76.8	76.8	78.4	47	55.0	0	2	202	0.00	30.051 
12:55	77.6	77.6	78.7	44	53.9	1	3	270	0.00	30.051 
13:00	77.2	77.2	78.5	44	53.6	1	3	270	0.00	30.044 
13:05	76.7	76.7	78.3	45	53.7	1	3	270	0.00	30.044 
13:10	76.3	76.3	78.1	44	52.8	1	3	270	0.00	30.044 
13:15	76.3	76.3	78.1	45	53.4	0	2	248	0.00	30.044 
13:20	76.5	76.5	78.2	45	53.6	1	5	248	0.00	30.044 
13:25	76.5	76.5	78.2	44	52.9	2	6	90	0.00	30.044 
13:30	76.3	76.3	78.1	45	53.4	1	2	270	0.00	30.041 
13:35	76.1	76.1	78.1	47	54.4	0	3	22	0.00	30.041 
13:40	76.3	76.3	78.1	46	54.0	0	3	135	0.00	30.041 
13:45	76.3	76.3	78.1	45	53.4	0	1	225	0.00	30.039 
13:50	76.5	76.5	78.2	46	54.2	0	2	225	0.00	30.039 
13:55	76.3	76.3	78.1	45	53.4	0	2	202	0.00	30.039 
14:00	76.0	76.0	78.0	46	53.7	1	3	248	0.00	30.043 
14:05	75.3	75.3	77.7	45	52.5	1	4	270	0.00	30.043 
14:10	74.7	74.7	74.7	46	52.5	1	4	270	0.00	30.043 
14:15	74.2	74.2	74.2	47	52.7	1	3	270	0.00	30.074 
14:20	73.9	73.9	73.9	48	53.0	1	3	292	0.00	30.074 
14:25	73.9	73.9	73.9	48	53.0	0	1	292	0.00	30.074 
14:30	73.9	73.9	73.9	49	53.5	0	2	292	0.00	30.060 
14:35	74.0	74.0	74.0	49	53.6	0	3	270	0.00	30.060 
14:40	74.2	74.2	74.2	48	53.2	1	3	315	0.00	30.060 
14:45	74.2	74.2	74.2	49	53.8	0	2	315	0.00	30.058 
14:50	73.9	73.9	73.9	50	54.1	0	2	315	0.00	30.058 
14:55	73.5	73.5	73.5	50	53.7	1	3	315	0.00	30.058 
15:00	73.0	73.0	73.0	51	53.8	1	3	270	0.00	30.063 
15:05	72.5	72.5	72.5	52	53.9	1	3	315	0.00	30.063 
15:10	72.3	72.3	72.3	55	55.2	1	2	315	0.00	30.063 
15:15	71.3	71.3	71.3	60	56.7	1	3	292	0.00	30.066 
15:20	70.4	70.4	70.4	63	57.2	0	1	292	0.00	30.066 
15:25	70.3	70.3	70.3	64	57.5	0	1	292	0.00	30.066 
15:30	70.3	70.3	70.3	63	57.1	0	1	292	0.00	30.052 
15:35	70.4	70.4	70.4	63	57.2	0	1	292	0.00	30.052 
15:40	70.6	70.6	70.6	62	56.9	1	3	292	0.00	30.052 
15:45	70.6	70.6	70.6	63	57.4	1	3	90	0.00	29.989 
15:50	70.6	70.6	70.6	62	56.9	1	4	90	0.00	29.989 
15:55	70.6	70.6	70.6	63	57.4	1	4	90	0.00	29.989 
16:00	70.6	70.6	70.6	63	57.4	2	5	90	0.00	29.969 
16:05	70.6	70.6	70.6	64	57.8	0	3	90	0.00	29.969 
16:10	70.8	70.8	70.8	63	57.6	0	1	90	0.00	29.969 
16:15	70.9	70.9	70.9	62	57.2	0	2	90	0.00	29.980 
16:20	70.9	70.9	70.9	62	57.2	0	2	90	0.00	29.980 
16:25	70.9	70.9	70.9	62	57.2	0	1	90	0.00	29.980 
16:30	70.9	70.9	70.9	62	57.2	0	1	90	0.00	29.967 
16:35	70.9	70.9	70.9	62	57.2	0	1	90	0.00	29.967 
16:40	71.1	71.1	71.1	62	57.4	0	1	90	0.00	29.967 
16:45	71.1	71.1	71.1	62	57.4	0	0	---	0.00	29.970 
16:50	71.1	71.1	71.1	62	57.4	0	1	90	0.00	29.970 
16:55	70.9	70.9	70.9	62	57.2	0	1	90	0.00	29.970 
17:00	70.9	70.9	70.9	62	57.2	0	0	---	0.00	29.977 
17:05	70.6	70.6	70.6	62	56.9	0	1	90	0.00	29.977 
17:10	70.4	70.4	70.4	62	56.7	0	0	---	0.00	29.977 
17:15	70.4	70.4	70.4	62	56.7	0	0	---	0.00	29.969 
17:20	70.3	70.3	70.3	63	57.1	0	0	---	0.00	29.969 
17:25	70.1	70.1	70.1	64	57.3	0	0	---	0.00	29.969 
17:30	70.1	70.1	70.1	64	57.3	0	1	90	0.00	29.971 
17:35	70.1	70.1	70.1	63	56.9	0	1	90	0.00	29.971 
17:40	70.3	70.3	70.3	63	57.1	0	0	---	0.00	29.971 
17:45	70.4	70.4	70.4	64	57.6	0	2	90	0.00	29.969 
17:50	70.4	70.4	70.4	64	57.6	0	1	90	0.00	29.969 
17:55	70.4	70.4	70.4	65	58.1	0	1	90	0.00	29.969 
18:00	70.3	70.3	70.3	64	57.5	0	1	90	0.00	29.968 
18:05	70.1	70.1	70.1	64	57.3	0	2	90	0.00	29.968 
18:10	69.9	69.9	69.9	65	57.6	0	0	---	0.00	29.968 
18:15	69.6	69.6	69.6	66	57.7	0	1	90	0.00	29.966 
18:20	69.4	69.4	69.4	66	57.5	0	0	---	0.00	29.966 
18:25	69.3	69.3	69.3	66	57.4	0	1	90	0.00	29.966 
18:30	69.1	69.1	69.1	69	58.5	0	1	90	0.00	29.966 
18:35	68.8	68.8	68.8	70	58.6	0	2	112	0.00	29.966 
18:40	68.3	68.3	68.3	71	58.5	0	1	112	0.00	29.966 
18:45	67.9	67.9	67.9	72	58.5	0	1	90	0.00	29.965 
18:50	67.4	67.4	67.4	74	58.8	0	1	90	0.00	29.965 
18:55	66.8	66.8	66.8	76	59.0	0	1	90	0.00	29.965 
19:00	66.4	66.4	66.4	77	59.0	0	1	90	0.00	29.959 
19:05	66.3	66.3	66.3	78	59.2	0	2	68	0.00	29.959 
19:10	66.0	66.0	66.0	79	59.3	0	2	248	0.00	29.959 
19:15	65.8	65.8	65.8	79	59.1	0	2	248	0.00	29.967 
19:20	65.6	65.6	65.6	79	58.9	0	2	338	0.00	29.967 
19:25	65.5	65.5	65.5	80	59.2	0	1	338	0.00	29.967 
19:30	65.5	65.5	65.5	81	59.5	0	1	338	0.00	29.963 
19:35	65.5	65.5	65.5	81	59.5	0	3	112	0.00	29.963 
19:40	65.3	65.3	65.3	81	59.3	0	1	112	0.00	29.963 
19:45	65.3	65.3	65.3	81	59.3	0	1	112	0.00	29.957 
19:50	65.3	65.3	65.3	81	59.3	0	1	112	0.00	29.957 
19:55	65.2	65.2	65.2	81	59.2	0	2	112	0.00	29.957 
20:00	65.2	65.2	65.2	81	59.2	0	1	112	0.00	29.956 
20:05	65.0	65.0	65.0	82	59.4	0	2	112	0.00	29.956 
20:10	65.0	65.0	65.0	82	59.4	0	1	112	0.00	29.956 
20:15	64.8	64.8	64.8	83	59.5	0	0	---	0.00	29.964 
20:20	64.8	64.8	64.8	83	59.5	0	0	---	0.00	29.964 
20:25	64.8	64.8	64.8	83	59.5	0	0	---	0.00	29.964 
20:30	64.8	64.8	64.8	83	59.5	0	1	112	0.00	29.970 
20:35	64.7	64.7	64.7	83	59.4	0	2	158	0.00	29.970 
20:40	64.7	64.7	64.7	82	59.1	0	4	112	0.00	29.970 
20:45	64.5	64.5	64.5	83	59.2	1	3	112	0.00	29.973 
20:50	64.5	64.5	64.5	83	59.2	0	2	112	0.00	29.973 
20:55	64.5	64.5	64.5	83	59.2	0	2	112	0.00	29.973 
21:00	64.3	64.3	64.3	83	59.0	0	1	112	0.00	29.972 
21:05	64.2	64.2	64.2	83	58.9	1	3	112	0.00	29.972 
21:10	63.9	63.9	63.9	83	58.6	1	3	112	0.00	29.972 
21:15	63.5	63.5	63.5	81	57.6	0	2	135	0.00	29.961 
21:20	63.1	63.1	63.1	81	57.2	1	3	90	0.00	29.961 
21:25	62.7	62.7	62.7	82	57.1	0	1	90	0.00	29.961 
21:30	62.6	62.6	62.6	83	57.4	0	1	90	0.00	29.977 
21:35	62.4	62.4	62.4	83	57.2	0	2	90	0.00	29.977 
21:40	62.3	62.3	62.3	84	57.4	1	6	338	0.00	29.977 
21:45	62.0	62.0	62.0	84	57.1	1	3	315	0.00	29.979 
21:50	61.3	61.3	61.3	84	56.4	1	4	338	0.00	29.979 
21:55	60.9	60.9	60.9	84	56.0	0	3	270	0.00	29.979 
22:00	60.5	60.5	60.5	85	56.0	1	5	90	0.00	29.982 
22:05	59.9	59.9	59.9	85	55.4	0	3	338	0.00	29.982 
22:10	59.6	59.6	59.6	86	55.4	0	2	270	0.00	29.982 
22:15	59.2	59.2	59.2	86	55.0	1	4	270	0.00	29.991 
22:20	58.9	58.9	58.9	87	55.0	0	3	292	0.00	29.991 
22:25	58.6	58.6	58.6	88	55.1	1	4	112	0.02	29.991 
22:30	58.3	58.3	58.3	89	55.1	0	2	112	0.01	29.993 
22:35	57.8	57.8	57.8	90	54.9	1	4	135	0.00	29.993 
22:40	57.6	57.6	57.6	91	55.0	0	2	180	0.00	29.993 
22:45	57.6	57.6	57.6	92	55.3	0	2	112	0.00	29.990 
22:50	57.6	57.6	57.6	92	55.3	0	3	135	0.00	29.990 
22:55	57.5	57.5	57.5	92	55.2	0	3	135	0.00	29.990 
23:00	57.5	57.5	57.5	92	55.2	0	2	135	0.00	29.977 
23:05	57.5	57.5	57.5	92	55.2	0	3	112	0.00	29.977 
23:10	57.5	57.5	57.5	92	55.2	0	1	112	0.00	29.977 
23:15	57.3	57.3	57.3	92	55.0	0	1	112	0.00	29.976 
23:20	57.3	57.3	57.3	93	55.3	0	2	292	0.00	29.976 
23:25	57.2	57.2	57.2	93	55.2	0	0	---	0.00	29.976 
23:30	57.2	57.2	57.2	93	55.2	0	0	---	0.00	29.979 
23:35	57.2	57.2	57.2	93	55.2	0	2	292	0.00	29.979 
23:40	57.3	57.3	57.3	93	55.3	0	0	---	0.00	29.979 
23:45	57.3	57.3	57.3	93	55.3	0	0	---	0.00	29.979 
23:50	57.3	57.3	57.3	93	55.3	0	0	---	0.00	29.979 
23:55	57.3	57.3	57.3	93	55.3	0	1	292	0.00	29.979 

CoCoRaHS
IN-AL-39
A2 Web Hosting
Creative Commons License
GoDaddy
Look for:

loaded 2017-10-19 19:53:02 • last modified 2010-11-18 10:43:29
Privacy PolicyDisclaimer
• wx.awcolley.com is powered by PmWiki v.2002016 •
• all content (unless otherwise noted) © 2017 A W Colley